Terminal Aerodrome Forecast
Issued by NWS

Home | Current Version | Previous Version | Text Only | Print | Product List | Glossary On
Versions: 1 2 3 4 5 6 7 8 9 10 11 12 13 14
366
FTUS44 KLIX 281140
TAFMSY
TAF
KMSY 281140Z 2812/2912 18004KT P6SM SCT020 BKN250
     FM281600 20006KT P6SM VCSH SCT035 BKN140
      TEMPO 2818/2821 4SM -TSRA BKN035CB
     FM290000 18005KT P6SM SCT100 BKN200=

USA.gov is the U.S. government's official web portal to all federal, state and local government web resources and services.